createdAt,value
2019-03-24T00:01:52.583Z,9.78
2019-03-24T00:04:54.493Z,9.75
2019-03-24T00:07:56.961Z,9.69
2019-03-24T00:10:59.059Z,9.67
2019-03-24T00:14:00.971Z,9.65
2019-03-24T00:17:02.862Z,9.62
2019-03-24T00:20:05.748Z,9.61
2019-03-24T00:23:07.639Z,9.61
2019-03-24T00:26:09.557Z,9.55
2019-03-24T00:29:11.591Z,9.52
2019-03-24T00:32:13.529Z,9.50
2019-03-24T00:35:15.640Z,9.42
2019-03-24T00:38:17.541Z,9.33
2019-03-24T00:41:19.510Z,9.27
2019-03-24T00:44:21.381Z,9.30
2019-03-24T00:47:23.316Z,9.40
2019-03-24T00:50:25.234Z,9.46
2019-03-24T00:53:27.148Z,9.49
2019-03-24T00:56:29.092Z,9.46
2019-03-24T00:59:31.032Z,9.42
2019-03-24T01:02:33.026Z,9.36
2019-03-24T01:05:34.986Z,9.32
2019-03-24T01:08:36.845Z,9.26
2019-03-24T01:11:38.742Z,9.20
2019-03-24T01:14:40.663Z,9.12
2019-03-24T01:17:42.550Z,9.02
2019-03-24T01:20:44.440Z,9.00
2019-03-24T01:23:46.364Z,9.08
2019-03-24T01:26:48.339Z,9.12
2019-03-24T01:29:50.172Z,9.23
2019-03-24T01:32:52.208Z,9.29
2019-03-24T01:35:55.138Z,9.30
2019-03-24T01:38:56.989Z,9.37
2019-03-24T01:41:58.863Z,9.44
2019-03-24T01:45:01.339Z,9.45
2019-03-24T01:48:03.428Z,9.43
2019-03-24T01:51:05.346Z,9.42
2019-03-24T01:54:07.220Z,9.45
2019-03-24T01:57:09.346Z,9.40
2019-03-24T02:00:11.423Z,9.32
2019-03-24T02:03:13.658Z,9.24
2019-03-24T02:06:15.541Z,9.29
2019-03-24T02:09:17.539Z,9.27
2019-03-24T02:12:20.507Z,9.31
2019-03-24T02:15:22.541Z,9.35
2019-03-24T02:18:24.366Z,9.37
2019-03-24T02:21:28.094Z,9.40
2019-03-24T02:24:29.976Z,9.40
2019-03-24T02:27:31.977Z,9.41
2019-03-24T02:30:33.892Z,9.40
2019-03-24T02:33:35.908Z,9.39
2019-03-24T02:36:38.119Z,9.42
2019-03-24T02:39:39.970Z,9.44
2019-03-24T02:42:41.849Z,9.40
2019-03-24T02:45:44.145Z,9.35
2019-03-24T02:48:46.107Z,9.37
2019-03-24T02:51:47.983Z,9.41
2019-03-24T02:54:49.870Z,9.38
2019-03-24T02:57:51.723Z,9.38
2019-03-24T03:00:53.648Z,9.37
2019-03-24T03:03:55.574Z,9.37
2019-03-24T03:06:57.499Z,9.43
2019-03-24T03:09:59.340Z,9.42
2019-03-24T03:13:01.244Z,9.45
2019-03-24T03:16:03.189Z,9.41
2019-03-24T03:19:05.092Z,9.37
2019-03-24T03:22:06.932Z,9.34
2019-03-24T03:25:09.690Z,9.37
2019-03-24T03:28:11.577Z,9.36
2019-03-24T03:31:13.502Z,9.32
2019-03-24T03:34:15.449Z,9.33
2019-03-24T03:37:17.387Z,9.32
2019-03-24T03:40:20.180Z,9.33
2019-03-24T03:43:22.081Z,9.34
2019-03-24T03:46:24.057Z,9.34
2019-03-24T03:49:25.974Z,9.37
2019-03-24T03:52:28.188Z,9.39
2019-03-24T03:55:30.062Z,9.40
2019-03-24T03:58:31.921Z,9.45
2019-03-24T04:01:33.870Z,9.44
2019-03-24T04:04:36.057Z,9.39
2019-03-24T04:07:38.046Z,9.42
2019-03-24T04:10:39.890Z,9.42
2019-03-24T04:13:41.791Z,9.42
2019-03-24T04:16:43.660Z,9.41
2019-03-24T04:19:45.620Z,9.42
2019-03-24T04:22:47.545Z,9.43
2019-03-24T04:25:49.502Z,9.42
2019-03-24T04:28:51.419Z,9.43
2019-03-24T04:31:53.320Z,9.46
2019-03-24T04:34:55.227Z,9.49
2019-03-24T04:37:57.195Z,9.45
2019-03-24T04:40:59.117Z,9.45
2019-03-24T04:44:01.096Z,9.47
2019-03-24T04:47:03.026Z,9.51
2019-03-24T04:50:07.060Z,9.47
2019-03-24T04:53:09.562Z,9.43
2019-03-24T04:56:11.465Z,9.44
2019-03-24T04:59:13.367Z,9.47
2019-03-24T05:02:15.331Z,9.45
2019-03-24T05:05:17.228Z,9.44
2019-03-24T05:08:19.151Z,9.43
2019-03-24T05:11:21.031Z,9.48
2019-03-24T05:14:22.947Z,9.68
2019-03-24T05:17:27.321Z,9.94
2019-03-24T05:20:29.016Z,10.02
2019-03-24T05:23:30.911Z,9.94
2019-03-24T05:26:32.827Z,9.85
2019-03-24T05:29:34.687Z,9.83
2019-03-24T05:32:36.903Z,9.82
2019-03-24T05:35:38.831Z,9.82
2019-03-24T05:38:40.795Z,9.84
2019-03-24T05:41:42.716Z,9.85
2019-03-24T05:44:44.671Z,9.95
2019-03-24T05:47:46.583Z,10.01
2019-03-24T05:50:48.520Z,10.16
2019-03-24T05:53:50.873Z,10.30
2019-03-24T05:56:52.781Z,10.39
2019-03-24T05:59:54.761Z,10.49
2019-03-24T06:02:57.400Z,10.58
2019-03-24T06:05:59.405Z,10.79
2019-03-24T06:09:01.271Z,11.48
2019-03-24T06:12:03.355Z,12.12
2019-03-24T06:15:07.130Z,12.77
2019-03-24T06:18:09.036Z,13.04
2019-03-24T06:21:10.980Z,13.80
2019-03-24T06:24:13.008Z,14.47
2019-03-24T06:27:14.909Z,15.05
2019-03-24T06:30:17.416Z,15.47
2019-03-24T06:33:19.267Z,16.35
2019-03-24T06:36:21.343Z,16.54
2019-03-24T06:39:23.272Z,15.99
2019-03-24T06:42:25.117Z,15.77
2019-03-24T06:45:28.669Z,15.79
2019-03-24T06:48:30.738Z,15.63
2019-03-24T06:51:32.589Z,15.29
2019-03-24T06:54:34.492Z,14.93
2019-03-24T06:57:36.337Z,14.73
2019-03-24T07:00:38.226Z,14.59
2019-03-24T07:03:41.185Z,14.51
2019-03-24T07:06:43.116Z,14.46
2019-03-24T07:09:45.002Z,14.27
2019-03-24T07:12:47.168Z,14.31
2019-03-24T07:15:49.057Z,14.25
2019-03-24T07:18:50.938Z,14.26
2019-03-24T07:21:52.808Z,14.18
2019-03-24T07:24:54.687Z,14.18
2019-03-24T07:27:56.618Z,14.27
2019-03-24T07:30:58.614Z,14.20
2019-03-24T07:34:00.491Z,14.10
2019-03-24T07:37:02.540Z,13.95
2019-03-24T07:40:07.411Z,14.01
2019-03-24T07:43:09.345Z,13.93
2019-03-24T07:46:11.273Z,13.92
2019-03-24T07:49:13.102Z,13.76
2019-03-24T07:52:15.072Z,13.67
2019-03-24T07:55:16.991Z,13.64
2019-03-24T07:58:18.833Z,13.50
2019-03-24T08:01:20.751Z,13.48
2019-03-24T08:04:22.607Z,13.42
2019-03-24T08:07:24.626Z,13.26
2019-03-24T08:10:26.499Z,13.25
2019-03-24T08:13:29.456Z,13.40
2019-03-24T08:16:31.428Z,13.49
2019-03-24T08:19:33.309Z,13.56
2019-03-24T08:22:35.183Z,13.68
2019-03-24T08:25:37.139Z,13.88
2019-03-24T08:28:39.027Z,14.04
2019-03-24T08:31:40.981Z,13.91
2019-03-24T08:34:42.862Z,14.07
2019-03-24T08:37:44.804Z,14.16
2019-03-24T08:40:46.789Z,14.28
2019-03-24T08:43:48.903Z,14.54
2019-03-24T08:46:50.822Z,14.73
2019-03-24T08:49:52.779Z,14.96
2019-03-24T08:52:54.733Z,15.05
2019-03-24T08:55:56.622Z,14.93
2019-03-24T08:58:58.497Z,14.89
2019-03-24T09:02:00.450Z,15.03
2019-03-24T09:05:04.029Z,14.97
2019-03-24T09:08:07.388Z,15.01
2019-03-24T09:11:09.293Z,15.06
2019-03-24T09:14:11.265Z,14.94
2019-03-24T09:17:13.222Z,14.81
2019-03-24T09:20:15.229Z,14.61
2019-03-24T09:23:17.191Z,14.46
2019-03-24T09:26:19.151Z,14.36
2019-03-24T09:29:21.671Z,14.60
2019-03-24T09:32:23.730Z,14.38
2019-03-24T09:35:25.729Z,14.33
2019-03-24T09:38:27.715Z,14.40
2019-03-24T09:41:29.793Z,14.54
2019-03-24T09:44:31.757Z,14.97
2019-03-24T09:47:34.183Z,15.41
2019-03-24T09:50:36.079Z,15.82
2019-03-24T09:53:38.091Z,16.07
2019-03-24T09:56:40.034Z,16.41
2019-03-24T09:59:42.994Z,16.34
2019-03-24T10:02:44.893Z,16.48
2019-03-24T10:05:46.846Z,16.62
2019-03-24T10:08:48.771Z,16.55
2019-03-24T10:11:50.734Z,16.43
2019-03-24T10:14:52.688Z,16.22
2019-03-24T10:17:54.580Z,15.68
2019-03-24T10:20:56.602Z,15.43
2019-03-24T10:23:58.550Z,15.34
2019-03-24T10:27:01.485Z,14.85
2019-03-24T10:30:08.066Z,14.88
2019-03-24T10:33:09.998Z,14.96
2019-03-24T10:36:12.037Z,14.90
2019-03-24T10:39:14.031Z,14.91
2019-03-24T10:42:16.076Z,15.03
2019-03-24T10:45:18.025Z,15.27
2019-03-24T10:48:19.938Z,15.37
2019-03-24T10:51:22.489Z,15.50
2019-03-24T10:54:24.358Z,15.55
2019-03-24T10:57:26.287Z,15.60
2019-03-24T11:00:41.578Z,15.55
2019-03-24T11:03:44.019Z,15.57
2019-03-24T11:06:45.955Z,15.67
2019-03-24T11:09:49.162Z,15.78
2019-03-24T11:12:52.211Z,15.79
2019-03-24T11:15:54.165Z,15.85
2019-03-24T11:18:56.082Z,15.85
2019-03-24T11:21:58.157Z,15.87
2019-03-24T11:25:00.302Z,15.89
2019-03-24T11:28:02.280Z,15.91
2019-03-24T11:31:04.224Z,16.03
2019-03-24T11:34:06.159Z,15.87
2019-03-24T11:37:08.122Z,16.04
2019-03-24T11:40:10.634Z,16.15
2019-03-24T11:43:12.770Z,16.12
2019-03-24T11:46:14.629Z,16.12
2019-03-24T11:49:17.476Z,16.12
2019-03-24T11:52:19.474Z,16.13
2019-03-24T11:55:21.444Z,16.04
2019-03-24T11:58:23.461Z,16.10
2019-03-24T12:01:25.434Z,15.86
2019-03-24T12:04:27.340Z,15.72
2019-03-24T12:07:29.225Z,15.72
2019-03-24T12:10:31.261Z,15.42
2019-03-24T12:13:34.617Z,15.34
2019-03-24T12:16:36.597Z,15.20
2019-03-24T12:19:38.554Z,15.20
2019-03-24T12:22:40.525Z,15.39
2019-03-24T12:25:42.543Z,15.36
2019-03-24T12:28:44.378Z,15.51
2019-03-24T12:31:46.331Z,15.66
2019-03-24T12:34:48.304Z,15.66
2019-03-24T12:37:50.267Z,15.63
2019-03-24T12:40:52.269Z,15.59
2019-03-24T12:43:54.335Z,15.55
2019-03-24T12:46:56.258Z,15.53
2019-03-24T12:50:08.261Z,15.52
2019-03-24T12:53:02.697Z,15.50
2019-03-24T12:56:04.727Z,15.43
2019-03-24T12:59:06.726Z,15.48
2019-03-24T13:02:08.740Z,15.38
2019-03-24T13:05:11.957Z,15.28
2019-03-24T13:08:15.994Z,15.24
2019-03-24T13:11:19.079Z,15.22
2019-03-24T13:14:21.066Z,15.04
2019-03-24T13:17:22.982Z,14.93
2019-03-24T13:20:37.741Z,14.82
2019-03-24T13:23:28.740Z,14.87
2019-03-24T13:26:30.855Z,14.83
2019-03-24T13:29:32.762Z,14.82
2019-03-24T13:32:34.686Z,14.78
2019-03-24T13:35:36.624Z,14.85
2019-03-24T13:38:38.576Z,14.83
2019-03-24T13:41:40.561Z,14.96
2019-03-24T13:44:42.601Z,14.98
2019-03-24T13:47:44.534Z,15.04
2019-03-24T13:50:46.459Z,15.06
2019-03-24T13:53:48.410Z,15.24
2019-03-24T13:56:50.372Z,15.27
2019-03-24T13:59:52.281Z,15.16
2019-03-24T14:02:54.427Z,15.12
2019-03-24T14:05:56.324Z,14.98
2019-03-24T14:08:58.376Z,14.93
2019-03-24T14:12:01.213Z,14.94
2019-03-24T14:15:05.022Z,14.86
2019-03-24T14:18:06.973Z,14.81
2019-03-24T14:21:08.938Z,14.67
2019-03-24T14:24:10.866Z,14.61
2019-03-24T14:27:12.811Z,14.44
2019-03-24T14:30:15.191Z,14.29
2019-03-24T14:33:17.096Z,14.07
2019-03-24T14:36:19.057Z,13.95
2019-03-24T14:39:21.003Z,13.80
2019-03-24T14:42:22.997Z,13.81
2019-03-24T14:45:25.099Z,13.77
2019-03-24T14:48:27.056Z,13.67
2019-03-24T14:51:29.019Z,13.55
2019-03-24T14:54:30.986Z,13.43
2019-03-24T14:57:32.925Z,13.35
2019-03-24T15:00:37.164Z,13.31
2019-03-24T15:03:39.104Z,13.22
2019-03-24T15:06:41.063Z,13.17
2019-03-24T15:09:42.982Z,13.07
2019-03-24T15:12:45.035Z,13.02
2019-03-24T15:15:46.997Z,12.89
2019-03-24T15:18:49.016Z,12.77
2019-03-24T15:21:50.978Z,12.69
2019-03-24T15:24:52.889Z,12.72
2019-03-24T15:27:54.841Z,12.69
2019-03-24T15:30:56.733Z,12.65
2019-03-24T15:33:58.743Z,12.59
2019-03-24T15:37:00.611Z,12.64
2019-03-24T15:40:04.282Z,12.62
2019-03-24T15:43:06.264Z,12.69
2019-03-24T15:46:08.181Z,12.68
2019-03-24T15:49:10.117Z,12.67
2019-03-24T15:52:12.036Z,12.62
2019-03-24T15:55:13.957Z,12.61
2019-03-24T15:58:15.842Z,12.60
2019-03-24T16:01:17.778Z,12.60
2019-03-24T16:04:19.645Z,12.61
2019-03-24T16:07:21.669Z,12.59
2019-03-24T16:10:34.700Z,12.58
2019-03-24T16:13:28.143Z,12.50
2019-03-24T16:16:30.104Z,12.38
2019-03-24T16:19:32.000Z,12.31
2019-03-24T16:22:33.960Z,12.22
2019-03-24T16:25:37.630Z,12.16
2019-03-24T16:28:40.582Z,12.13
2019-03-24T16:31:42.459Z,12.09
2019-03-24T16:34:44.411Z,12.03
2019-03-24T16:37:46.345Z,11.96
2019-03-24T16:40:48.292Z,11.86
2019-03-24T16:43:50.256Z,11.84
2019-03-24T16:46:52.297Z,11.81
2019-03-24T16:49:55.839Z,11.78
2019-03-24T16:52:58.645Z,11.75
2019-03-24T16:56:02.800Z,11.66
2019-03-24T16:59:06.060Z,11.69
2019-03-24T17:02:13.174Z,11.67
2019-03-24T17:05:17.991Z,11.62
2019-03-24T17:08:23.748Z,11.53
2019-03-24T17:11:25.943Z,11.53
2019-03-24T17:14:29.707Z,11.42
2019-03-24T17:17:32.695Z,11.37
2019-03-24T17:20:35.019Z,11.34
2019-03-24T17:23:37.269Z,11.30
2019-03-24T17:26:41.560Z,11.24
2019-03-24T17:29:43.589Z,11.21
2019-03-24T17:32:45.512Z,11.13
2019-03-24T17:35:47.532Z,11.02
2019-03-24T17:38:49.432Z,11.00
2019-03-24T17:41:51.703Z,10.96
2019-03-24T17:44:53.666Z,10.99
2019-03-24T17:47:55.782Z,10.96
2019-03-24T17:50:57.955Z,10.91
2019-03-24T17:54:00.290Z,10.90
2019-03-24T17:57:02.346Z,10.92
2019-03-24T18:00:09.721Z,10.90
2019-03-24T18:03:11.629Z,10.95
2019-03-24T18:06:15.758Z,10.96
2019-03-24T18:09:17.939Z,10.97
2019-03-24T18:12:20.067Z,10.96
2019-03-24T18:15:24.534Z,10.89
2019-03-24T18:18:26.655Z,10.90
2019-03-24T18:21:30.435Z,10.88
2019-03-24T18:24:32.601Z,10.84
2019-03-24T18:27:34.487Z,10.81
2019-03-24T18:30:38.141Z,10.82
2019-03-24T18:33:40.149Z,10.79
2019-03-24T18:36:42.538Z,10.75
2019-03-24T18:39:44.433Z,10.74
2019-03-24T18:42:48.118Z,10.70
2019-03-24T18:45:50.107Z,10.68
2019-03-24T18:48:53.849Z,10.66
2019-03-24T18:51:56.161Z,10.64
2019-03-24T18:54:58.080Z,10.62
2019-03-24T18:58:00.432Z,10.60
2019-03-24T19:01:02.281Z,10.55
2019-03-24T19:04:04.214Z,10.51
2019-03-24T19:07:07.976Z,10.47
2019-03-24T19:10:14.418Z,10.45
2019-03-24T19:13:19.449Z,10.45
2019-03-24T19:16:25.116Z,10.48
2019-03-24T19:19:29.158Z,10.47
2019-03-24T19:22:33.862Z,10.48
2019-03-24T19:25:35.046Z,10.45
2019-03-24T19:28:37.901Z,10.45
2019-03-24T19:31:41.577Z,10.40
2019-03-24T19:34:44.482Z,10.40
2019-03-24T19:37:46.697Z,10.39
2019-03-24T19:40:48.983Z,10.38
2019-03-24T19:43:52.888Z,10.33
2019-03-24T19:46:56.870Z,10.29
2019-03-24T19:50:01.639Z,10.29
2019-03-24T19:53:03.654Z,10.27
2019-03-24T19:56:05.568Z,10.23
2019-03-24T19:59:09.374Z,10.20
2019-03-24T20:02:11.444Z,10.20
2019-03-24T20:05:18.630Z,10.24
2019-03-24T20:08:21.254Z,10.21
2019-03-24T20:11:26.719Z,10.22
2019-03-24T20:14:29.530Z,10.22
2019-03-24T20:17:34.895Z,10.26
2019-03-24T20:20:36.954Z,10.25
2019-03-24T20:23:40.657Z,10.26
2019-03-24T20:26:42.980Z,10.26
2019-03-24T20:29:45.039Z,10.29
2019-03-24T20:32:48.950Z,10.27
2019-03-24T20:35:51.493Z,10.25
2019-03-24T20:38:55.628Z,10.23
2019-03-24T20:41:58.159Z,10.23
2019-03-24T20:45:02.231Z,10.25
2019-03-24T20:48:05.665Z,10.23
2019-03-24T20:51:08.388Z,10.24
2019-03-24T20:54:10.350Z,10.21
2019-03-24T20:57:12.256Z,10.19
2019-03-24T21:00:15.983Z,10.23
2019-03-24T21:03:19.833Z,10.21
2019-03-24T21:06:21.668Z,10.17
2019-03-24T21:09:23.601Z,10.10
2019-03-24T21:12:25.488Z,10.11
2019-03-24T21:15:27.450Z,10.12
2019-03-24T21:18:29.378Z,10.10
2019-03-24T21:21:31.264Z,10.06
2019-03-24T21:24:33.179Z,10.06
2019-03-24T21:27:35.130Z,10.03
2019-03-24T21:30:39.084Z,10.05
2019-03-24T21:33:41.003Z,10.06
2019-03-24T21:36:43.022Z,10.09
2019-03-24T21:39:45.873Z,10.04
2019-03-24T21:42:47.823Z,10.05
2019-03-24T21:45:49.722Z,10.03
2019-03-24T21:48:51.732Z,10.00
2019-03-24T21:51:55.443Z,9.95
2019-03-24T21:54:57.402Z,9.88
2019-03-24T21:57:59.354Z,9.87
2019-03-24T22:01:01.363Z,9.79
2019-03-24T22:04:03.244Z,9.80
2019-03-24T22:07:05.121Z,9.76
2019-03-24T22:10:07.040Z,9.73
2019-03-24T22:13:08.929Z,9.71
2019-03-24T22:16:10.781Z,9.60
2019-03-24T22:19:12.905Z,9.61
2019-03-24T22:22:14.766Z,9.56
2019-03-24T22:25:16.689Z,9.48
2019-03-24T22:28:18.552Z,9.45
2019-03-24T22:31:20.461Z,9.39
2019-03-24T22:34:22.329Z,9.34
2019-03-24T22:37:24.195Z,9.26
2019-03-24T22:40:26.111Z,9.19
2019-03-24T22:43:27.961Z,9.11
2019-03-24T22:46:29.856Z,9.10
2019-03-24T22:49:31.768Z,9.04
2019-03-24T22:52:33.694Z,8.99
2019-03-24T22:55:35.566Z,8.95
2019-03-24T22:58:37.434Z,8.92
2019-03-24T23:01:39.312Z,8.92
2019-03-24T23:04:41.168Z,8.90
2019-03-24T23:07:43.006Z,8.78
2019-03-24T23:10:44.903Z,8.77
2019-03-24T23:13:46.742Z,8.73
2019-03-24T23:16:48.650Z,8.72
2019-03-24T23:19:51.152Z,8.69
2019-03-24T23:22:53.036Z,8.68
2019-03-24T23:25:54.935Z,8.70
2019-03-24T23:28:56.823Z,8.68
2019-03-24T23:31:59.776Z,8.63
2019-03-24T23:35:01.659Z,8.61
2019-03-24T23:38:03.540Z,8.56
2019-03-24T23:41:05.423Z,8.56
2019-03-24T23:44:07.375Z,8.52
2019-03-24T23:47:09.226Z,8.50
2019-03-24T23:50:11.446Z,8.50
2019-03-24T23:53:13.453Z,8.49
2019-03-24T23:56:16.483Z,8.45
2019-03-24T23:59:18.328Z,8.41
